sensor_id;sensor_type;location;lat;lon;timestamp;P1;durP1;ratioP1;P2;durP2;ratioP2
76113;SDS011;64845;53.086;5.834;2023-06-19T00:02:11;9.05;;;6.55;;
76113;SDS011;64845;53.086;5.834;2023-06-19T00:04:36;7.45;;;6.57;;
76113;SDS011;64845;53.086;5.834;2023-06-19T00:07:03;8.88;;;6.15;;
76113;SDS011;64845;53.086;5.834;2023-06-19T00:09:28;7.50;;;6.53;;
76113;SDS011;64845;53.086;5.834;2023-06-19T00:11:54;6.60;;;5.97;;
76113;SDS011;64845;53.086;5.834;2023-06-19T00:14:19;6.80;;;6.10;;
76113;SDS011;64845;53.086;5.834;2023-06-19T00:16:44;7.93;;;6.28;;
76113;SDS011;64845;53.086;5.834;2023-06-19T00:19:10;7.95;;;6.72;;
76113;SDS011;64845;53.086;5.834;2023-06-19T00:21:37;7.13;;;5.80;;
76113;SDS011;64845;53.086;5.834;2023-06-19T00:24:03;8.30;;;6.53;;
76113;SDS011;64845;53.086;5.834;2023-06-19T00:26:29;9.18;;;5.97;;
76113;SDS011;64845;53.086;5.834;2023-06-19T00:28:54;9.55;;;6.22;;
76113;SDS011;64845;53.086;5.834;2023-06-19T00:31:20;11.93;;;6.22;;
76113;SDS011;64845;53.086;5.834;2023-06-19T00:33:46;10.75;;;6.10;;
76113;SDS011;64845;53.086;5.834;2023-06-19T00:36:13;8.23;;;5.75;;
76113;SDS011;64845;53.086;5.834;2023-06-19T00:38:40;6.20;;;5.60;;
76113;SDS011;64845;53.086;5.834;2023-06-19T00:41:06;6.88;;;6.07;;
76113;SDS011;64845;53.086;5.834;2023-06-19T00:43:32;8.95;;;6.20;;
76113;SDS011;64845;53.086;5.834;2023-06-19T00:45:58;10.57;;;6.32;;
76113;SDS011;64845;53.086;5.834;2023-06-19T00:48:25;7.53;;;6.60;;
76113;SDS011;64845;53.086;5.834;2023-06-19T00:50:52;8.27;;;6.50;;
76113;SDS011;64845;53.086;5.834;2023-06-19T00:53:19;10.20;;;7.57;;
76113;SDS011;64845;53.086;5.834;2023-06-19T00:55:45;8.15;;;7.18;;
76113;SDS011;64845;53.086;5.834;2023-06-19T00:58:12;8.00;;;6.38;;
76113;SDS011;64845;53.086;5.834;2023-06-19T01:00:38;11.38;;;6.55;;
76113;SDS011;64845;53.086;5.834;2023-06-19T01:03:03;8.23;;;6.70;;
76113;SDS011;64845;53.086;5.834;2023-06-19T01:05:29;7.68;;;6.88;;
76113;SDS011;64845;53.086;5.834;2023-06-19T01:07:59;11.23;;;7.50;;
76113;SDS011;64845;53.086;5.834;2023-06-19T01:10:33;8.57;;;6.60;;
76113;SDS011;64845;53.086;5.834;2023-06-19T01:13:08;12.18;;;7.40;;
76113;SDS011;64845;53.086;5.834;2023-06-19T01:15:40;10.00;;;6.80;;
76113;SDS011;64845;53.086;5.834;2023-06-19T01:18:07;7.68;;;6.65;;
76113;SDS011;64845;53.086;5.834;2023-06-19T01:20:32;8.35;;;7.25;;
76113;SDS011;64845;53.086;5.834;2023-06-19T01:23:05;12.90;;;7.45;;
76113;SDS011;64845;53.086;5.834;2023-06-19T01:25:32;11.23;;;7.03;;
76113;SDS011;64845;53.086;5.834;2023-06-19T01:27:57;11.45;;;7.43;;
76113;SDS011;64845;53.086;5.834;2023-06-19T01:30:23;7.22;;;6.38;;
76113;SDS011;64845;53.086;5.834;2023-06-19T01:32:53;7.20;;;6.50;;
76113;SDS011;64845;53.086;5.834;2023-06-19T01:35:27;8.38;;;6.35;;
76113;SDS011;64845;53.086;5.834;2023-06-19T01:37:54;8.25;;;7.00;;
76113;SDS011;64845;53.086;5.834;2023-06-19T01:40:20;10.93;;;6.40;;
76113;SDS011;64845;53.086;5.834;2023-06-19T01:42:49;7.00;;;6.17;;
76113;SDS011;64845;53.086;5.834;2023-06-19T01:45:16;7.85;;;6.78;;
76113;SDS011;64845;53.086;5.834;2023-06-19T01:47:42;10.18;;;6.43;;
76113;SDS011;64845;53.086;5.834;2023-06-19T01:50:07;8.38;;;6.13;;
76113;SDS011;64845;53.086;5.834;2023-06-19T01:52:34;10.57;;;6.90;;
76113;SDS011;64845;53.086;5.834;2023-06-19T01:54:59;9.70;;;6.55;;
76113;SDS011;64845;53.086;5.834;2023-06-19T01:57:24;6.50;;;5.68;;
76113;SDS011;64845;53.086;5.834;2023-06-19T01:59:50;8.48;;;6.18;;
76113;SDS011;64845;53.086;5.834;2023-06-19T02:02:16;10.52;;;6.45;;
76113;SDS011;64845;53.086;5.834;2023-06-19T02:04:41;13.68;;;6.30;;
76113;SDS011;64845;53.086;5.834;2023-06-19T02:07:07;6.88;;;6.03;;
76113;SDS011;64845;53.086;5.834;2023-06-19T02:09:33;13.13;;;6.60;;
76113;SDS011;64845;53.086;5.834;2023-06-19T02:11:58;9.07;;;6.50;;
76113;SDS011;64845;53.086;5.834;2023-06-19T02:14:23;11.00;;;6.55;;
76113;SDS011;64845;53.086;5.834;2023-06-19T02:16:49;10.77;;;6.95;;
76113;SDS011;64845;53.086;5.834;2023-06-19T02:19:14;12.77;;;6.78;;
76113;SDS011;64845;53.086;5.834;2023-06-19T02:21:40;10.88;;;6.60;;
76113;SDS011;64845;53.086;5.834;2023-06-19T02:24:05;10.88;;;6.95;;
76113;SDS011;64845;53.086;5.834;2023-06-19T02:26:31;10.43;;;7.22;;
76113;SDS011;64845;53.086;5.834;2023-06-19T02:28:56;9.40;;;7.78;;
76113;SDS011;64845;53.086;5.834;2023-06-19T02:31:22;8.23;;;6.93;;
76113;SDS011;64845;53.086;5.834;2023-06-19T02:33:48;10.55;;;6.85;;
76113;SDS011;64845;53.086;5.834;2023-06-19T02:36:14;7.93;;;6.38;;
76113;SDS011;64845;53.086;5.834;2023-06-19T02:38:44;9.43;;;6.45;;
76113;SDS011;64845;53.086;5.834;2023-06-19T02:41:12;11.77;;;6.78;;
76113;SDS011;64845;53.086;5.834;2023-06-19T02:43:39;11.38;;;6.75;;
76113;SDS011;64845;53.086;5.834;2023-06-19T02:46:05;8.07;;;6.20;;
76113;SDS011;64845;53.086;5.834;2023-06-19T02:48:30;8.10;;;6.60;;
76113;SDS011;64845;53.086;5.834;2023-06-19T02:50:56;8.13;;;6.40;;
76113;SDS011;64845;53.086;5.834;2023-06-19T02:53:21;13.55;;;7.00;;
76113;SDS011;64845;53.086;5.834;2023-06-19T02:55:47;8.02;;;6.70;;
76113;SDS011;64845;53.086;5.834;2023-06-19T02:58:12;12.70;;;6.90;;
76113;SDS011;64845;53.086;5.834;2023-06-19T03:00:37;13.60;;;7.28;;
76113;SDS011;64845;53.086;5.834;2023-06-19T03:03:03;8.05;;;6.78;;
76113;SDS011;64845;53.086;5.834;2023-06-19T03:05:28;8.88;;;6.95;;
76113;SDS011;64845;53.086;5.834;2023-06-19T03:07:53;10.10;;;6.78;;
76113;SDS011;64845;53.086;5.834;2023-06-19T03:10:19;11.30;;;6.95;;
76113;SDS011;64845;53.086;5.834;2023-06-19T03:12:44;9.13;;;7.03;;
76113;SDS011;64845;53.086;5.834;2023-06-19T03:15:10;7.97;;;6.95;;
76113;SDS011;64845;53.086;5.834;2023-06-19T03:17:36;9.00;;;6.90;;
76113;SDS011;64845;53.086;5.834;2023-06-19T03:20:01;9.23;;;5.93;;
76113;SDS011;64845;53.086;5.834;2023-06-19T03:22:26;10.57;;;6.90;;
76113;SDS011;64845;53.086;5.834;2023-06-19T03:24:52;7.43;;;6.32;;
76113;SDS011;64845;53.086;5.834;2023-06-19T03:27:18;8.48;;;6.78;;
76113;SDS011;64845;53.086;5.834;2023-06-19T03:29:43;7.32;;;6.28;;
76113;SDS011;64845;53.086;5.834;2023-06-19T03:32:08;5.55;;;4.95;;
76113;SDS011;64845;53.086;5.834;2023-06-19T03:34:34;4.32;;;3.90;;
76113;SDS011;64845;53.086;5.834;2023-06-19T03:36:59;9.40;;;4.22;;
76113;SDS011;64845;53.086;5.834;2023-06-19T03:39:25;5.10;;;3.20;;
76113;SDS011;64845;53.086;5.834;2023-06-19T03:41:51;5.03;;;3.35;;
76113;SDS011;64845;53.086;5.834;2023-06-19T03:44:16;3.50;;;2.72;;
76113;SDS011;64845;53.086;5.834;2023-06-19T03:46:41;9.43;;;2.95;;
76113;SDS011;64845;53.086;5.834;2023-06-19T03:49:07;7.85;;;3.28;;
76113;SDS011;64845;53.086;5.834;2023-06-19T03:51:34;5.00;;;3.63;;
76113;SDS011;64845;53.086;5.834;2023-06-19T03:53:59;8.55;;;4.00;;
76113;SDS011;64845;53.086;5.834;2023-06-19T03:56:25;6.00;;;4.10;;
76113;SDS011;64845;53.086;5.834;2023-06-19T03:58:50;9.82;;;3.90;;
76113;SDS011;64845;53.086;5.834;2023-06-19T04:01:15;6.85;;;3.67;;
76113;SDS011;64845;53.086;5.834;2023-06-19T04:03:41;10.63;;;3.35;;
76113;SDS011;64845;53.086;5.834;2023-06-19T04:06:06;5.75;;;3.00;;
76113;SDS011;64845;53.086;5.834;2023-06-19T04:08:33;5.82;;;3.08;;
76113;SDS011;64845;53.086;5.834;2023-06-19T04:10:58;8.57;;;3.20;;
76113;SDS011;64845;53.086;5.834;2023-06-19T04:13:24;8.25;;;2.78;;
76113;SDS011;64845;53.086;5.834;2023-06-19T04:15:51;5.38;;;2.50;;
76113;SDS011;64845;53.086;5.834;2023-06-19T04:18:16;5.63;;;2.58;;
76113;SDS011;64845;53.086;5.834;2023-06-19T04:20:42;6.00;;;2.72;;
76113;SDS011;64845;53.086;5.834;2023-06-19T04:23:07;3.95;;;2.80;;
76113;SDS011;64845;53.086;5.834;2023-06-19T04:25:32;5.47;;;2.90;;
76113;SDS011;64845;53.086;5.834;2023-06-19T04:27:58;5.07;;;2.90;;
76113;SDS011;64845;53.086;5.834;2023-06-19T04:30:23;3.78;;;2.72;;
76113;SDS011;64845;53.086;5.834;2023-06-19T04:32:49;4.88;;;2.95;;
76113;SDS011;64845;53.086;5.834;2023-06-19T04:35:14;3.75;;;2.90;;
76113;SDS011;64845;53.086;5.834;2023-06-19T04:37:39;8.02;;;2.90;;
76113;SDS011;64845;53.086;5.834;2023-06-19T04:40:05;3.72;;;2.70;;
76113;SDS011;64845;53.086;5.834;2023-06-19T04:42:32;3.80;;;3.17;;
76113;SDS011;64845;53.086;5.834;2023-06-19T04:44:58;4.18;;;3.30;;
76113;SDS011;64845;53.086;5.834;2023-06-19T04:47:24;4.38;;;3.60;;
76113;SDS011;64845;53.086;5.834;2023-06-19T04:49:50;7.88;;;3.00;;
76113;SDS011;64845;53.086;5.834;2023-06-19T04:52:15;6.40;;;3.70;;
76113;SDS011;64845;53.086;5.834;2023-06-19T04:54:40;4.72;;;3.63;;
76113;SDS011;64845;53.086;5.834;2023-06-19T04:57:06;7.13;;;3.90;;
76113;SDS011;64845;53.086;5.834;2023-06-19T04:59:31;4.88;;;3.90;;
76113;SDS011;64845;53.086;5.834;2023-06-19T05:01:57;11.35;;;4.72;;
76113;SDS011;64845;53.086;5.834;2023-06-19T05:04:22;7.05;;;4.70;;
76113;SDS011;64845;53.086;5.834;2023-06-19T05:06:49;6.50;;;4.72;;
76113;SDS011;64845;53.086;5.834;2023-06-19T05:09:14;9.48;;;5.10;;
76113;SDS011;64845;53.086;5.834;2023-06-19T05:11:40;10.25;;;5.85;;
76113;SDS011;64845;53.086;5.834;2023-06-19T05:14:05;12.00;;;6.50;;
76113;SDS011;64845;53.086;5.834;2023-06-19T05:16:31;12.60;;;6.55;;
76113;SDS011;64845;53.086;5.834;2023-06-19T05:18:56;13.65;;;6.72;;
76113;SDS011;64845;53.086;5.834;2023-06-19T05:21:21;10.32;;;7.53;;
76113;SDS011;64845;53.086;5.834;2023-06-19T05:23:47;12.07;;;7.55;;
76113;SDS011;64845;53.086;5.834;2023-06-19T05:26:15;14.75;;;7.82;;
76113;SDS011;64845;53.086;5.834;2023-06-19T05:28:44;14.93;;;10.23;;
76113;SDS011;64845;53.086;5.834;2023-06-19T05:31:10;15.93;;;11.68;;
76113;SDS011;64845;53.086;5.834;2023-06-19T05:33:35;20.55;;;14.57;;
76113;SDS011;64845;53.086;5.834;2023-06-19T05:36:01;22.10;;;16.00;;
76113;SDS011;64845;53.086;5.834;2023-06-19T05:38:26;26.55;;;20.50;;
76113;SDS011;64845;53.086;5.834;2023-06-19T05:40:55;30.27;;;22.52;;
76113;SDS011;64845;53.086;5.834;2023-06-19T05:43:20;31.50;;;22.10;;
76113;SDS011;64845;53.086;5.834;2023-06-19T05:45:47;27.42;;;21.35;;
76113;SDS011;64845;53.086;5.834;2023-06-19T05:48:12;29.38;;;22.73;;
76113;SDS011;64845;53.086;5.834;2023-06-19T05:50:37;27.00;;;21.75;;
76113;SDS011;64845;53.086;5.834;2023-06-19T05:53:03;27.42;;;22.13;;
76113;SDS011;64845;53.086;5.834;2023-06-19T05:55:41;27.17;;;21.02;;
76113;SDS011;64845;53.086;5.834;2023-06-19T05:58:21;26.02;;;20.92;;
76113;SDS011;64845;53.086;5.834;2023-06-19T06:00:46;26.45;;;22.98;;
76113;SDS011;64845;53.086;5.834;2023-06-19T06:03:12;28.98;;;22.13;;
76113;SDS011;64845;53.086;5.834;2023-06-19T06:05:38;33.55;;;23.55;;
76113;SDS011;64845;53.086;5.834;2023-06-19T06:08:04;32.05;;;22.38;;
76113;SDS011;64845;53.086;5.834;2023-06-19T06:10:29;30.38;;;22.08;;
76113;SDS011;64845;53.086;5.834;2023-06-19T06:12:55;26.73;;;21.30;;
76113;SDS011;64845;53.086;5.834;2023-06-19T06:15:20;31.27;;;21.92;;
76113;SDS011;64845;53.086;5.834;2023-06-19T06:17:46;26.45;;;18.75;;
76113;SDS011;64845;53.086;5.834;2023-06-19T06:20:11;29.25;;;21.80;;
76113;SDS011;64845;53.086;5.834;2023-06-19T06:22:40;26.70;;;21.17;;
76113;SDS011;64845;53.086;5.834;2023-06-19T06:25:07;28.05;;;20.65;;
76113;SDS011;64845;53.086;5.834;2023-06-19T06:27:33;32.08;;;22.33;;
76113;SDS011;64845;53.086;5.834;2023-06-19T06:29:59;38.35;;;24.15;;
76113;SDS011;64845;53.086;5.834;2023-06-19T06:32:24;38.67;;;24.52;;
76113;SDS011;64845;53.086;5.834;2023-06-19T06:34:51;38.33;;;23.85;;
76113;SDS011;64845;53.086;5.834;2023-06-19T06:37:17;38.03;;;23.75;;
76113;SDS011;64845;53.086;5.834;2023-06-19T06:42:12;45.72;;;25.92;;
76113;SDS011;64845;53.086;5.834;2023-06-19T06:44:38;41.22;;;22.13;;
76113;SDS011;64845;53.086;5.834;2023-06-19T06:47:03;52.58;;;26.95;;
76113;SDS011;64845;53.086;5.834;2023-06-19T06:49:28;48.67;;;26.63;;
76113;SDS011;64845;53.086;5.834;2023-06-19T06:51:54;48.03;;;27.60;;
76113;SDS011;64845;53.086;5.834;2023-06-19T06:54:20;47.00;;;26.65;;
76113;SDS011;64845;53.086;5.834;2023-06-19T06:56:45;48.42;;;24.67;;
76113;SDS011;64845;53.086;5.834;2023-06-19T06:59:13;52.53;;;27.45;;
76113;SDS011;64845;53.086;5.834;2023-06-19T07:01:40;44.53;;;26.33;;
76113;SDS011;64845;53.086;5.834;2023-06-19T07:04:06;45.42;;;26.20;;
76113;SDS011;64845;53.086;5.834;2023-06-19T07:06:32;36.35;;;21.67;;
76113;SDS011;64845;53.086;5.834;2023-06-19T07:08:57;40.28;;;21.83;;
76113;SDS011;64845;53.086;5.834;2023-06-19T07:11:25;32.92;;;19.35;;
76113;SDS011;64845;53.086;5.834;2023-06-19T07:13:51;34.75;;;21.83;;
76113;SDS011;64845;53.086;5.834;2023-06-19T07:16:16;35.08;;;21.55;;
76113;SDS011;64845;53.086;5.834;2023-06-19T07:18:41;30.55;;;19.30;;
76113;SDS011;64845;53.086;5.834;2023-06-19T07:21:09;26.65;;;17.95;;
76113;SDS011;64845;53.086;5.834;2023-06-19T07:23:40;28.20;;;16.25;;
76113;SDS011;64845;53.086;5.834;2023-06-19T07:26:07;30.92;;;19.65;;
76113;SDS011;64845;53.086;5.834;2023-06-19T07:28:34;30.20;;;18.95;;
76113;SDS011;64845;53.086;5.834;2023-06-19T07:31:01;25.13;;;16.88;;
76113;SDS011;64845;53.086;5.834;2023-06-19T07:33:28;29.40;;;16.75;;
76113;SDS011;64845;53.086;5.834;2023-06-19T07:35:54;28.05;;;15.93;;
76113;SDS011;64845;53.086;5.834;2023-06-19T07:38:19;24.98;;;15.45;;
76113;SDS011;64845;53.086;5.834;2023-06-19T07:40:45;23.17;;;13.73;;
76113;SDS011;64845;53.086;5.834;2023-06-19T07:43:10;20.00;;;14.13;;
76113;SDS011;64845;53.086;5.834;2023-06-19T07:45:36;16.75;;;10.10;;
76113;SDS011;64845;53.086;5.834;2023-06-19T07:48:01;19.23;;;10.73;;
76113;SDS011;64845;53.086;5.834;2023-06-19T07:50:27;16.80;;;9.02;;
76113;SDS011;64845;53.086;5.834;2023-06-19T07:52:52;14.50;;;9.65;;
76113;SDS011;64845;53.086;5.834;2023-06-19T07:55:18;18.88;;;10.35;;
76113;SDS011;64845;53.086;5.834;2023-06-19T07:57:43;17.73;;;9.65;;
76113;SDS011;64845;53.086;5.834;2023-06-19T08:00:09;16.23;;;9.07;;
76113;SDS011;64845;53.086;5.834;2023-06-19T08:02:40;14.68;;;9.43;;
76113;SDS011;64845;53.086;5.834;2023-06-19T08:05:06;15.07;;;8.98;;
76113;SDS011;64845;53.086;5.834;2023-06-19T08:07:33;17.40;;;9.85;;
76113;SDS011;64845;53.086;5.834;2023-06-19T08:09:58;14.13;;;9.02;;
76113;SDS011;64845;53.086;5.834;2023-06-19T08:12:24;13.50;;;9.43;;
76113;SDS011;64845;53.086;5.834;2023-06-19T08:14:49;14.73;;;9.68;;
76113;SDS011;64845;53.086;5.834;2023-06-19T08:17:14;13.10;;;8.75;;
76113;SDS011;64845;53.086;5.834;2023-06-19T08:19:40;14.93;;;9.63;;
76113;SDS011;64845;53.086;5.834;2023-06-19T08:22:07;19.85;;;10.80;;
76113;SDS011;64845;53.086;5.834;2023-06-19T08:24:33;15.25;;;9.85;;
76113;SDS011;64845;53.086;5.834;2023-06-19T08:26:58;18.15;;;10.40;;
76113;SDS011;64845;53.086;5.834;2023-06-19T08:29:24;23.35;;;11.00;;
76113;SDS011;64845;53.086;5.834;2023-06-19T08:31:49;14.80;;;10.38;;
76113;SDS011;64845;53.086;5.834;2023-06-19T08:34:15;17.05;;;11.18;;
76113;SDS011;64845;53.086;5.834;2023-06-19T08:36:40;17.30;;;11.93;;
76113;SDS011;64845;53.086;5.834;2023-06-19T08:39:05;22.02;;;12.05;;
76113;SDS011;64845;53.086;5.834;2023-06-19T08:41:33;21.88;;;12.15;;
76113;SDS011;64845;53.086;5.834;2023-06-19T08:43:59;20.58;;;11.48;;
76113;SDS011;64845;53.086;5.834;2023-06-19T08:46:24;19.85;;;11.32;;
76113;SDS011;64845;53.086;5.834;2023-06-19T08:48:50;20.75;;;12.65;;
76113;SDS011;64845;53.086;5.834;2023-06-19T08:51:15;26.15;;;11.63;;
76113;SDS011;64845;53.086;5.834;2023-06-19T08:53:48;17.17;;;11.60;;
76113;SDS011;64845;53.086;5.834;2023-06-19T08:56:17;19.85;;;12.00;;
76113;SDS011;64845;53.086;5.834;2023-06-19T08:58:43;18.60;;;12.32;;
76113;SDS011;64845;53.086;5.834;2023-06-19T09:01:08;22.73;;;12.88;;
76113;SDS011;64845;53.086;5.834;2023-06-19T09:03:34;18.77;;;12.95;;
76113;SDS011;64845;53.086;5.834;2023-06-19T09:06:03;14.68;;;11.40;;
76113;SDS011;64845;53.086;5.834;2023-06-19T09:08:32;20.40;;;11.82;;
76113;SDS011;64845;53.086;5.834;2023-06-19T09:11:01;21.23;;;12.07;;
76113;SDS011;64845;53.086;5.834;2023-06-19T09:13:28;18.58;;;12.15;;
76113;SDS011;64845;53.086;5.834;2023-06-19T09:15:58;20.27;;;11.88;;
76113;SDS011;64845;53.086;5.834;2023-06-19T09:18:26;18.92;;;12.05;;
76113;SDS011;64845;53.086;5.834;2023-06-19T09:20:53;22.95;;;12.38;;
76113;SDS011;64845;53.086;5.834;2023-06-19T09:23:19;21.17;;;11.35;;
76113;SDS011;64845;53.086;5.834;2023-06-19T09:28:20;16.08;;;11.82;;
76113;SDS011;64845;53.086;5.834;2023-06-19T09:33:18;19.48;;;12.65;;
76113;SDS011;64845;53.086;5.834;2023-06-19T09:35:43;22.52;;;12.43;;
76113;SDS011;64845;53.086;5.834;2023-06-19T09:38:09;19.15;;;12.35;;
76113;SDS011;64845;53.086;5.834;2023-06-19T09:40:36;18.20;;;13.20;;
76113;SDS011;64845;53.086;5.834;2023-06-19T09:43:03;23.48;;;13.73;;
76113;SDS011;64845;53.086;5.834;2023-06-19T09:45:31;19.63;;;14.70;;
76113;SDS011;64845;53.086;5.834;2023-06-19T09:47:58;23.40;;;14.52;;
76113;SDS011;64845;53.086;5.834;2023-06-19T09:50:24;20.67;;;13.50;;
76113;SDS011;64845;53.086;5.834;2023-06-19T09:52:52;23.08;;;14.23;;
76113;SDS011;64845;53.086;5.834;2023-06-19T09:55:20;28.88;;;14.55;;
76113;SDS011;64845;53.086;5.834;2023-06-19T09:57:49;18.88;;;11.90;;
76113;SDS011;64845;53.086;5.834;2023-06-19T10:00:15;20.75;;;14.05;;
76113;SDS011;64845;53.086;5.834;2023-06-19T10:02:42;22.75;;;13.85;;
76113;SDS011;64845;53.086;5.834;2023-06-19T10:05:09;25.33;;;13.82;;
76113;SDS011;64845;53.086;5.834;2023-06-19T10:07:36;25.25;;;14.25;;
76113;SDS011;64845;53.086;5.834;2023-06-19T10:10:05;26.17;;;14.40;;
76113;SDS011;64845;53.086;5.834;2023-06-19T10:15:15;24.38;;;13.68;;
76113;SDS011;64845;53.086;5.834;2023-06-19T10:17:46;20.67;;;13.90;;
76113;SDS011;64845;53.086;5.834;2023-06-19T10:25:32;25.70;;;15.60;;
76113;SDS011;64845;53.086;5.834;2023-06-19T10:28:17;21.27;;;15.07;;
76113;SDS011;64845;53.086;5.834;2023-06-19T10:30:44;28.60;;;14.70;;
76113;SDS011;64845;53.086;5.834;2023-06-19T10:33:16;23.25;;;14.88;;
76113;SDS011;64845;53.086;5.834;2023-06-19T10:35:41;22.52;;;14.52;;
76113;SDS011;64845;53.086;5.834;2023-06-19T10:38:07;20.98;;;14.00;;
76113;SDS011;64845;53.086;5.834;2023-06-19T10:40:35;20.70;;;10.95;;
76113;SDS011;64845;53.086;5.834;2023-06-19T10:43:03;19.88;;;12.32;;
76113;SDS011;64845;53.086;5.834;2023-06-19T10:45:29;22.42;;;15.25;;
76113;SDS011;64845;53.086;5.834;2023-06-19T10:47:55;18.70;;;12.57;;
76113;SDS011;64845;53.086;5.834;2023-06-19T10:50:21;20.40;;;14.38;;
76113;SDS011;64845;53.086;5.834;2023-06-19T10:52:48;21.63;;;16.00;;
76113;SDS011;64845;53.086;5.834;2023-06-19T10:55:14;25.75;;;17.30;;
76113;SDS011;64845;53.086;5.834;2023-06-19T10:57:40;30.05;;;18.08;;
76113;SDS011;64845;53.086;5.834;2023-06-19T11:00:10;26.00;;;16.08;;
76113;SDS011;64845;53.086;5.834;2023-06-19T11:02:38;23.52;;;14.57;;
76113;SDS011;64845;53.086;5.834;2023-06-19T11:05:06;25.42;;;16.02;;
76113;SDS011;64845;53.086;5.834;2023-06-19T11:07:31;22.08;;;14.68;;
76113;SDS011;64845;53.086;5.834;2023-06-19T11:09:57;27.77;;;15.48;;
76113;SDS011;64845;53.086;5.834;2023-06-19T11:12:23;25.90;;;13.90;;
76113;SDS011;64845;53.086;5.834;2023-06-19T11:14:48;23.70;;;16.23;;
76113;SDS011;64845;53.086;5.834;2023-06-19T11:17:14;25.15;;;17.20;;
76113;SDS011;64845;53.086;5.834;2023-06-19T11:19:41;22.98;;;15.20;;
76113;SDS011;64845;53.086;5.834;2023-06-19T11:22:08;25.17;;;16.80;;
76113;SDS011;64845;53.086;5.834;2023-06-19T11:24:34;28.10;;;15.95;;
76113;SDS011;64845;53.086;5.834;2023-06-19T11:27:00;24.45;;;14.00;;
76113;SDS011;64845;53.086;5.834;2023-06-19T11:29:26;25.80;;;14.13;;
76113;SDS011;64845;53.086;5.834;2023-06-19T11:32:04;21.25;;;14.48;;
76113;SDS011;64845;53.086;5.834;2023-06-19T11:34:32;21.90;;;15.02;;
76113;SDS011;64845;53.086;5.834;2023-06-19T11:36:58;23.50;;;13.90;;
76113;SDS011;64845;53.086;5.834;2023-06-19T11:39:24;22.30;;;12.38;;
76113;SDS011;64845;53.086;5.834;2023-06-19T11:41:49;17.75;;;12.15;;
76113;SDS011;64845;53.086;5.834;2023-06-19T11:44:16;19.80;;;12.30;;
76113;SDS011;64845;53.086;5.834;2023-06-19T11:46:41;22.77;;;11.35;;
76113;SDS011;64845;53.086;5.834;2023-06-19T11:51:40;22.58;;;14.63;;
76113;SDS011;64845;53.086;5.834;2023-06-19T11:54:07;16.35;;;11.10;;
76113;SDS011;64845;53.086;5.834;2023-06-19T11:56:36;18.63;;;10.15;;
76113;SDS011;64845;53.086;5.834;2023-06-19T11:59:03;18.00;;;9.47;;
76113;SDS011;64845;53.086;5.834;2023-06-19T12:01:32;16.77;;;9.75;;
76113;SDS011;64845;53.086;5.834;2023-06-19T12:03:59;12.27;;;8.63;;
76113;SDS011;64845;53.086;5.834;2023-06-19T12:06:25;15.45;;;9.10;;
76113;SDS011;64845;53.086;5.834;2023-06-19T12:08:51;15.25;;;9.88;;
76113;SDS011;64845;53.086;5.834;2023-06-19T12:11:17;15.90;;;9.32;;
76113;SDS011;64845;53.086;5.834;2023-06-19T12:13:42;19.50;;;9.77;;
76113;SDS011;64845;53.086;5.834;2023-06-19T12:16:11;16.00;;;10.05;;
76113;SDS011;64845;53.086;5.834;2023-06-19T12:18:36;14.55;;;8.82;;
76113;SDS011;64845;53.086;5.834;2023-06-19T12:21:02;10.38;;;7.95;;
76113;SDS011;64845;53.086;5.834;2023-06-19T12:23:28;12.10;;;8.18;;
76113;SDS011;64845;53.086;5.834;2023-06-19T12:25:53;13.20;;;7.63;;
76113;SDS011;64845;53.086;5.834;2023-06-19T12:28:19;11.82;;;7.93;;
76113;SDS011;64845;53.086;5.834;2023-06-19T12:30:44;15.93;;;8.32;;
76113;SDS011;64845;53.086;5.834;2023-06-19T12:33:10;13.43;;;8.77;;
76113;SDS011;64845;53.086;5.834;2023-06-19T12:35:39;13.80;;;8.38;;
76113;SDS011;64845;53.086;5.834;2023-06-19T12:38:05;15.10;;;7.33;;
76113;SDS011;64845;53.086;5.834;2023-06-19T12:40:31;13.75;;;8.43;;
76113;SDS011;64845;53.086;5.834;2023-06-19T12:42:57;11.68;;;8.20;;
76113;SDS011;64845;53.086;5.834;2023-06-19T12:45:22;11.38;;;8.32;;
76113;SDS011;64845;53.086;5.834;2023-06-19T12:47:48;11.50;;;8.43;;
76113;SDS011;64845;53.086;5.834;2023-06-19T12:50:13;11.25;;;8.30;;
76113;SDS011;64845;53.086;5.834;2023-06-19T12:52:38;10.52;;;8.02;;
76113;SDS011;64845;53.086;5.834;2023-06-19T12:55:04;12.10;;;7.30;;
76113;SDS011;64845;53.086;5.834;2023-06-19T12:57:29;11.80;;;7.55;;
76113;SDS011;64845;53.086;5.834;2023-06-19T12:59:55;11.82;;;6.80;;
76113;SDS011;64845;53.086;5.834;2023-06-19T13:02:20;12.30;;;7.78;;
76113;SDS011;64845;53.086;5.834;2023-06-19T13:04:46;14.35;;;8.88;;
76113;SDS011;64845;53.086;5.834;2023-06-19T13:07:11;17.13;;;9.52;;
76113;SDS011;64845;53.086;5.834;2023-06-19T13:09:37;16.45;;;8.80;;
76113;SDS011;64845;53.086;5.834;2023-06-19T13:12:03;14.20;;;8.85;;
76113;SDS011;64845;53.086;5.834;2023-06-19T13:14:28;11.45;;;8.45;;
76113;SDS011;64845;53.086;5.834;2023-06-19T13:16:54;16.23;;;8.27;;
76113;SDS011;64845;53.086;5.834;2023-06-19T13:19:19;13.13;;;9.02;;
76113;SDS011;64845;53.086;5.834;2023-06-19T13:21:44;14.93;;;8.82;;
76113;SDS011;64845;53.086;5.834;2023-06-19T13:24:10;12.95;;;7.55;;
76113;SDS011;64845;53.086;5.834;2023-06-19T13:26:36;11.93;;;7.30;;
76113;SDS011;64845;53.086;5.834;2023-06-19T13:29:01;11.60;;;7.30;;
76113;SDS011;64845;53.086;5.834;2023-06-19T13:31:27;10.77;;;7.47;;
76113;SDS011;64845;53.086;5.834;2023-06-19T13:33:52;13.48;;;6.00;;
76113;SDS011;64845;53.086;5.834;2023-06-19T13:36:18;12.23;;;6.53;;
76113;SDS011;64845;53.086;5.834;2023-06-19T13:38:44;10.93;;;7.70;;
76113;SDS011;64845;53.086;5.834;2023-06-19T13:41:11;12.55;;;7.20;;
76113;SDS011;64845;53.086;5.834;2023-06-19T13:43:37;14.15;;;7.22;;
76113;SDS011;64845;53.086;5.834;2023-06-19T13:46:06;9.98;;;7.22;;
76113;SDS011;64845;53.086;5.834;2023-06-19T13:48:32;9.95;;;7.05;;
76113;SDS011;64845;53.086;5.834;2023-06-19T13:50:58;10.63;;;7.22;;
76113;SDS011;64845;53.086;5.834;2023-06-19T13:53:25;7.78;;;5.82;;
76113;SDS011;64845;53.086;5.834;2023-06-19T13:55:50;10.07;;;6.05;;
76113;SDS011;64845;53.086;5.834;2023-06-19T13:58:16;12.65;;;6.35;;
76113;SDS011;64845;53.086;5.834;2023-06-19T14:00:41;10.93;;;5.75;;
76113;SDS011;64845;53.086;5.834;2023-06-19T14:03:06;8.27;;;5.70;;
76113;SDS011;64845;53.086;5.834;2023-06-19T14:05:32;10.52;;;5.25;;
76113;SDS011;64845;53.086;5.834;2023-06-19T14:07:58;12.60;;;5.95;;
76113;SDS011;64845;53.086;5.834;2023-06-19T14:10:24;11.75;;;6.28;;
76113;SDS011;64845;53.086;5.834;2023-06-19T14:12:50;8.82;;;5.38;;
76113;SDS011;64845;53.086;5.834;2023-06-19T14:15:15;11.82;;;5.93;;
76113;SDS011;64845;53.086;5.834;2023-06-19T14:17:41;8.40;;;6.22;;
76113;SDS011;64845;53.086;5.834;2023-06-19T14:20:07;10.60;;;5.82;;
76113;SDS011;64845;53.086;5.834;2023-06-19T14:22:35;8.93;;;5.82;;
76113;SDS011;64845;53.086;5.834;2023-06-19T14:25:00;10.98;;;5.57;;
76113;SDS011;64845;53.086;5.834;2023-06-19T14:27:27;9.45;;;5.65;;
76113;SDS011;64845;53.086;5.834;2023-06-19T14:29:53;11.85;;;6.22;;
76113;SDS011;64845;53.086;5.834;2023-06-19T14:32:20;21.80;;;5.93;;
76113;SDS011;64845;53.086;5.834;2023-06-19T14:34:46;11.77;;;5.53;;
76113;SDS011;64845;53.086;5.834;2023-06-19T14:37:11;10.13;;;5.47;;
76113;SDS011;64845;53.086;5.834;2023-06-19T14:39:37;9.10;;;5.43;;
76113;SDS011;64845;53.086;5.834;2023-06-19T14:42:02;10.38;;;5.55;;
76113;SDS011;64845;53.086;5.834;2023-06-19T14:44:28;7.55;;;5.10;;
76113;SDS011;64845;53.086;5.834;2023-06-19T14:46:53;9.80;;;5.05;;